Back to Top

Language: 

My Weather Underground Personal Weather Station Historical Data with Graphs...

Delerius Weather Station Historical Data
Daily Summary for February 7, 2017 Units:  Both    English   Metric
« Previous Day
Next Day »
Daily Weekly Monthly Yearly Custom
  High: Low: Average:
Temperature: 49.9 °F /  9.9 °C 38.0 °F /  3.3 °C 41.8 °F /  5.4 °C
Dew Point: 44.6 °F /  7 °C 36.8 °F /  2.7 °C 39.9 °F /  4.4 °C
Humidity: 98 % 78 % 93 %
Wind Speed: 11.0 mph /  17.7 km/h - 2.8 mph /  4.5 km/h
Wind Gust: 20.0 mph /  32.2 km/h - -
Wind:- - SSE
Pressure: 30.15 in /  1020.9 hPa 29.81 in /  1009.4 hPa -
Precipitation: 0.02 in /  0.51 mm    
Historical Graphs
 
 
Tabular Data for February 7, 2017
Time Temperature Dew Point Pressure Wind Wind Speed Wind Gust Humidity Rainfall Rate (Hourly) solar Conditions
00:00 38.1 °F /  3.4 °C 37.3 °F /  2.9 °C 29.85 in /  1010.7 hPa SE 9.0 mph /  14.5 km/h 9.0 mph /  14.5 km/h 97 % 0.00 in /  0 mm 0 W/m2
00:05 38.1 °F /  3.4 °C 37.3 °F /  2.9 °C 29.85 in /  1010.7 hPa SE 11.0 mph /  17.7 km/h 11.0 mph /  17.7 km/h 97 % 0.00 in /  0 mm 0 W/m2
00:15 38.1 °F /  3.4 °C 37.3 °F /  2.9 °C 29.85 in /  1010.7 hPa SE 9.0 mph /  14.5 km/h 10.0 mph /  16.1 km/h 97 % 0.00 in /  0 mm 0 W/m2
00:25 38.1 °F /  3.4 °C 37.3 °F /  2.9 °C 29.86 in /  1011.1 hPa ESE 9.0 mph /  14.5 km/h 9.0 mph /  14.5 km/h 97 % 0.00 in /  0 mm 0 W/m2
00:30 38.1 °F /  3.4 °C 37.3 °F /  2.9 °C 29.85 in /  1010.7 hPa SE 10.0 mph /  16.1 km/h 11.0 mph /  17.7 km/h 97 % 0.00 in /  0 mm 0 W/m2
00:35 38.0 °F /  3.3 °C 37.2 °F /  2.9 °C 29.85 in /  1010.7 hPa SSE 10.0 mph /  16.1 km/h 11.0 mph /  17.7 km/h 97 % 0.00 in /  0 mm 0 W/m2
00:40 38.0 °F /  3.3 °C 37.2 °F /  2.9 °C 29.85 in /  1010.7 hPa ESE 9.0 mph /  14.5 km/h 9.0 mph /  14.5 km/h 97 % 0.00 in /  0 mm 0 W/m2
00:45 38.0 °F /  3.3 °C 37.2 °F /  2.9 °C 29.85 in /  1010.7 hPa SSE 8.0 mph /  12.9 km/h 11.0 mph /  17.7 km/h 97 % 0.00 in /  0 mm 0 W/m2
00:50 38.0 °F /  3.3 °C 37.2 °F /  2.9 °C 29.85 in /  1010.7 hPa SE 8.0 mph /  12.9 km/h 11.0 mph /  17.7 km/h 97 % 0.00 in /  0 mm 0 W/m2
01:00 38.0 °F /  3.3 °C 37.2 °F /  2.9 °C 29.84 in /  1010.4 hPa SE 8.0 mph /  12.9 km/h 8.0 mph /  12.9 km/h 97 % 0.00 in /  0 mm 0 W/m2
01:05 38.0 °F /  3.3 °C 37.2 °F /  2.9 °C 29.84 in /  1010.4 hPa SSE 8.0 mph /  12.9 km/h 9.0 mph /  14.5 km/h 97 % 0.00 in /  0 mm 0 W/m2
01:10 38.0 °F /  3.3 °C 37.2 °F /  2.9 °C 29.84 in /  1010.4 hPa SE 8.0 mph /  12.9 km/h 20.0 mph /  32.2 km/h 97 % 0.00 in /  0 mm 0 W/m2
01:15 38.0 °F /  3.3 °C 37.2 °F /  2.9 °C 29.84 in /  1010.4 hPa SE 9.0 mph /  14.5 km/h 20.0 mph /  32.2 km/h 97 % 0.00 in /  0 mm 0 W/m2
01:20 38.0 °F /  3.3 °C 37.2 °F /  2.9 °C 29.84 in /  1010.4 hPa SSE 10.0 mph /  16.1 km/h 20.0 mph /  32.2 km/h 97 % 0.00 in /  0 mm 0 W/m2
01:30 38.0 °F /  3.3 °C 37.2 °F /  2.9 °C 29.83 in /  1010 hPa SSE 10.0 mph /  16.1 km/h 20.0 mph /  32.2 km/h 97 % 0.00 in /  0 mm 0 W/m2
01:35 38.0 °F /  3.3 °C 37.2 °F /  2.9 °C 29.83 in /  1010 hPa SE 10.0 mph /  16.1 km/h 20.0 mph /  32.2 km/h 97 % 0.00 in /  0 mm 0 W/m2
01:40 38.0 °F /  3.3 °C 37.2 °F /  2.9 °C 29.83 in /  1010 hPa SSE 10.0 mph /  16.1 km/h 20.0 mph /  32.2 km/h 97 % 0.00 in /  0 mm 0 W/m2
01:45 38.0 °F /  3.3 °C 37.2 °F /  2.9 °C 29.83 in /  1010 hPa SSE 10.0 mph /  16.1 km/h 20.0 mph /  32.2 km/h 97 % 0.00 in /  0 mm 0 W/m2
01:50 38.0 °F /  3.3 °C 37.2 °F /  2.9 °C 29.83 in /  1010 hPa SE 9.0 mph /  14.5 km/h 9.0 mph /  14.5 km/h 97 % 0.00 in /  0 mm 0 W/m2
01:55 38.0 °F /  3.3 °C 37.2 °F /  2.9 °C 29.83 in /  1010 hPa SSE 8.0 mph /  12.9 km/h 20.0 mph /  32.2 km/h 97 % 0.00 in /  0 mm 0 W/m2
02:05 38.0 °F /  3.3 °C 37.2 °F /  2.9 °C 29.83 in /  1010 hPa SSE 7.0 mph /  11.3 km/h 10.0 mph /  16.1 km/h 97 % 0.00 in /  0 mm 0 W/m2
02:10 38.1 °F /  3.4 °C 37.3 °F /  2.9 °C 29.83 in /  1010 hPa SE 8.0 mph /  12.9 km/h 20.0 mph /  32.2 km/h 97 % 0.00 in /  0 mm 0 W/m2
02:15 38.1 °F /  3.4 °C 37.3 °F /  2.9 °C 29.83 in /  1010 hPa SSE 8.0 mph /  12.9 km/h 20.0 mph /  32.2 km/h 97 % 0.00 in /  0 mm 0 W/m2
02:20 38.2 °F /  3.4 °C 37.4 °F /  3 °C 29.83 in /  1010 hPa ESE 7.0 mph /  11.3 km/h 7.0 mph /  11.3 km/h 97 % 0.00 in /  0 mm 0 W/m2
02:25 38.2 °F /  3.4 °C 37.4 °F /  3 °C 29.83 in /  1010 hPa ESE 6.0 mph /  9.7 km/h 20.0 mph /  32.2 km/h 97 % 0.00 in /  0 mm 0 W/m2
02:35 38.3 °F /  3.5 °C 37.5 °F /  3.1 °C 29.83 in /  1010 hPa SE 9.0 mph /  14.5 km/h 20.0 mph /  32.2 km/h 97 % 0.00 in /  0 mm 0 W/m2
02:40 38.4 °F /  3.6 °C 37.6 °F /  3.1 °C 29.83 in /  1010 hPa South 9.0 mph /  14.5 km/h 20.0 mph /  32.2 km/h 97 % 0.00 in /  0 mm 0 W/m2
02:45 38.4 °F /  3.6 °C 37.6 °F /  3.1 °C 29.83 in /  1010 hPa SE 10.0 mph /  16.1 km/h 20.0 mph /  32.2 km/h 97 % 0.00 in /  0 mm 0 W/m2
02:50 38.5 °F /  3.6 °C 37.7 °F /  3.2 °C 29.83 in /  1010 hPa SE 8.0 mph /  12.9 km/h 8.0 mph /  12.9 km/h 97 % 0.00 in /  0 mm 0 W/m2
02:55 38.5 °F /  3.6 °C 37.7 °F /  3.2 °C 29.82 in /  1009.7 hPa SE 7.0 mph /  11.3 km/h 12.0 mph /  19.3 km/h 97 % 0.00 in /  0 mm 0 W/m2
03:00 38.5 °F /  3.6 °C 37.7 °F /  3.2 °C 29.82 in /  1009.7 hPa SE 7.0 mph /  11.3 km/h 7.0 mph /  11.3 km/h 97 % 0.00 in /  0 mm 0 W/m2
03:10 38.6 °F /  3.7 °C 37.8 °F /  3.2 °C 29.82 in /  1009.7 hPa SSE 6.0 mph /  9.7 km/h 20.0 mph /  32.2 km/h 97 % 0.00 in /  0 mm 0 W/m2
03:15 38.7 °F /  3.7 °C 37.9 °F /  3.3 °C 29.81 in /  1009.4 hPa SE 8.0 mph /  12.9 km/h 20.0 mph /  32.2 km/h 97 % 0.00 in /  0 mm 0 W/m2
03:20 38.7 °F /  3.7 °C 37.9 °F /  3.3 °C 29.82 in /  1009.7 hPa SE 8.0 mph /  12.9 km/h 20.0 mph /  32.2 km/h 97 % 0.00 in /  0 mm 0 W/m2
03:25 38.7 °F /  3.7 °C 37.9 °F /  3.3 °C 29.81 in /  1009.4 hPa ESE 8.0 mph /  12.9 km/h 20.0 mph /  32.2 km/h 97 % 0.00 in /  0 mm 0 W/m2
03:30 38.8 °F /  3.8 °C 38.0 °F /  3.3 °C 29.81 in /  1009.4 hPa SE 9.0 mph /  14.5 km/h 9.0 mph /  14.5 km/h 97 % 0.00 in /  0 mm 0 W/m2
03:40 38.8 °F /  3.8 °C 38.0 °F /  3.3 °C 29.81 in /  1009.4 hPa SE 7.0 mph /  11.3 km/h 20.0 mph /  32.2 km/h 97 % 0.00 in /  0 mm 0 W/m2
03:45 38.9 °F /  3.8 °C 38.1 °F /  3.4 °C 29.82 in /  1009.7 hPa SE 6.0 mph /  9.7 km/h 20.0 mph /  32.2 km/h 97 % 0.00 in /  0 mm 0 W/m2
03:50 38.9 °F /  3.8 °C 38.1 °F /  3.4 °C 29.82 in /  1009.7 hPa SSE 7.0 mph /  11.3 km/h 20.0 mph /  32.2 km/h 97 % 0.00 in /  0 mm 0 W/m2
03:55 39.0 °F /  3.9 °C 38.2 °F /  3.4 °C 29.81 in /  1009.4 hPa SE 7.0 mph /  11.3 km/h 20.0 mph /  32.2 km/h 97 % 0.00 in /  0 mm 0 W/m2
04:00 39.0 °F /  3.9 °C 38.2 °F /  3.4 °C 29.82 in /  1009.7 hPa SE 6.0 mph /  9.7 km/h 6.0 mph /  9.7 km/h 97 % 0.00 in /  0 mm 0 W/m2
04:05 39.0 °F /  3.9 °C 38.2 °F /  3.4 °C 29.82 in /  1009.7 hPa SE 6.0 mph /  9.7 km/h 9.0 mph /  14.5 km/h 97 % 0.00 in /  0 mm 0 W/m2
04:15 39.1 °F /  3.9 °C 38.3 °F /  3.5 °C 29.82 in /  1009.7 hPa SSE 6.0 mph /  9.7 km/h 20.0 mph /  32.2 km/h 97 % 0.00 in /  0 mm 0 W/m2
04:20 39.1 °F /  3.9 °C 38.3 °F /  3.5 °C 29.82 in /  1009.7 hPa SSE 6.0 mph /  9.7 km/h 6.0 mph /  9.7 km/h 97 % 0.00 in /  0 mm 0 W/m2
04:25 39.2 °F /  4 °C 38.4 °F /  3.6 °C 29.82 in /  1009.7 hPa South 7.0 mph /  11.3 km/h 7.0 mph /  11.3 km/h 97 % 0.00 in /  0 mm 0 W/m2
04:30 39.2 °F /  4 °C 38.4 °F /  3.6 °C 29.82 in /  1009.7 hPa South 7.0 mph /  11.3 km/h 7.0 mph /  11.3 km/h 97 % 0.00 in /  0 mm 0 W/m2
04:35 39.2 °F /  4 °C 38.4 °F /  3.6 °C 29.82 in /  1009.7 hPa South 7.0 mph /  11.3 km/h 20.0 mph /  32.2 km/h 97 % 0.00 in /  0 mm 0 W/m2
04:45 39.3 °F /  4.1 °C 38.5 °F /  3.6 °C 29.82 in /  1009.7 hPa South 4.0 mph /  6.4 km/h 7.0 mph /  11.3 km/h 97 % 0.00 in /  0 mm 0 W/m2
04:50 39.3 °F /  4.1 °C 38.5 °F /  3.6 °C 29.82 in /  1009.7 hPa South 4.0 mph /  6.4 km/h 4.0 mph /  6.4 km/h 97 % 0.00 in /  0 mm 0 W/m2
04:55 39.4 °F /  4.1 °C 38.6 °F /  3.7 °C 29.82 in /  1009.7 hPa SE 5.0 mph /  8 km/h 9.0 mph /  14.5 km/h 97 % 0.00 in /  0 mm 0 W/m2
05:00 39.4 °F /  4.1 °C 38.6 °F /  3.7 °C 29.82 in /  1009.7 hPa SW 6.0 mph /  9.7 km/h 6.0 mph /  9.7 km/h 97 % 0.00 in /  0 mm 0 W/m2
05:05 39.4 °F /  4.1 °C 38.6 °F /  3.7 °C 29.82 in /  1009.7 hPa SSW 7.0 mph /  11.3 km/h 7.0 mph /  11.3 km/h 97 % 0.00 in /  0 mm 0 W/m2
05:10 39.4 °F /  4.1 °C 38.6 °F /  3.7 °C 29.82 in /  1009.7 hPa SSE 6.0 mph /  9.7 km/h 20.0 mph /  32.2 km/h 97 % 0.00 in /  0 mm 0 W/m2
05:20 39.5 °F /  4.2 °C 38.7 °F /  3.7 °C 29.82 in /  1009.7 hPa South 5.0 mph /  8 km/h 20.0 mph /  32.2 km/h 97 % 0.00 in /  0 mm 0 W/m2
05:25 39.5 °F /  4.2 °C 38.7 °F /  3.7 °C 29.82 in /  1009.7 hPa SSW 5.0 mph /  8 km/h 20.0 mph /  32.2 km/h 97 % 0.00 in /  0 mm 0 W/m2
05:30 39.5 °F /  4.2 °C 38.7 °F /  3.7 °C 29.82 in /  1009.7 hPa SSE 4.0 mph /  6.4 km/h 20.0 mph /  32.2 km/h 97 % 0.00 in /  0 mm 0 W/m2
05:35 39.6 °F /  4.2 °C 38.8 °F /  3.8 °C 29.83 in /  1010 hPa SE 4.0 mph /  6.4 km/h 20.0 mph /  32.2 km/h 97 % 0.00 in /  0 mm 0 W/m2
05:40 39.6 °F /  4.2 °C 38.8 °F /  3.8 °C 29.83 in /  1010 hPa SSW 5.0 mph /  8 km/h 5.0 mph /  8 km/h 97 % 0.00 in /  0 mm 0 W/m2
05:50 39.6 °F /  4.2 °C 38.8 °F /  3.8 °C 29.83 in /  1010 hPa SE 5.0 mph /  8 km/h 20.0 mph /  32.2 km/h 97 % 0.00 in /  0 mm 0 W/m2
05:55 39.6 °F /  4.2 °C 38.8 °F /  3.8 °C 29.83 in /  1010 hPa South 5.0 mph /  8 km/h 20.0 mph /  32.2 km/h 97 % 0.00 in /  0 mm 0 W/m2
06:00 39.6 °F /  4.2 °C 38.8 °F /  3.8 °C 29.83 in /  1010 hPa SSE 4.0 mph /  6.4 km/h 4.0 mph /  6.4 km/h 97 % 0.00 in /  0 mm 0 W/m2
06:05 39.6 °F /  4.2 °C 38.8 °F /  3.8 °C 29.83 in /  1010 hPa SE 5.0 mph /  8 km/h 7.0 mph /  11.3 km/h 97 % 0.00 in /  0 mm 0 W/m2
06:10 39.6 °F /  4.2 °C 38.8 °F /  3.8 °C 29.82 in /  1009.7 hPa SSE 5.0 mph /  8 km/h 5.0 mph /  8 km/h 97 % 0.00 in /  0 mm 0 W/m2
06:15 39.7 °F /  4.3 °C 38.9 °F /  3.8 °C 29.82 in /  1009.7 hPa SE 6.0 mph /  9.7 km/h 6.0 mph /  9.7 km/h 97 % 0.00 in /  0 mm 0 W/m2
06:25 39.7 °F /  4.3 °C 38.9 °F /  3.8 °C 29.83 in /  1010 hPa SSW 6.0 mph /  9.7 km/h 20.0 mph /  32.2 km/h 97 % 0.00 in /  0 mm 0 W/m2
06:30 39.7 °F /  4.3 °C 38.9 °F /  3.8 °C 29.82 in /  1009.7 hPa South 6.0 mph /  9.7 km/h 6.0 mph /  9.7 km/h 97 % 0.00 in /  0 mm 0 W/m2
06:35 39.7 °F /  4.3 °C 38.9 °F /  3.8 °C 29.83 in /  1010 hPa SE 6.0 mph /  9.7 km/h 20.0 mph /  32.2 km/h 97 % 0.00 in /  0 mm 0 W/m2
06:40 39.7 °F /  4.3 °C 38.9 °F /  3.8 °C 29.83 in /  1010 hPa SE 5.0 mph /  8 km/h 20.0 mph /  32.2 km/h 97 % 0.00 in /  0 mm 0 W/m2
06:45 39.7 °F /  4.3 °C 38.9 °F /  3.8 °C 29.83 in /  1010 hPa SSE 4.0 mph /  6.4 km/h 20.0 mph /  32.2 km/h 97 % 0.00 in /  0 mm 0 W/m2
06:55 39.8 °F /  4.3 °C 39.0 °F /  3.9 °C 29.84 in /  1010.4 hPa ESE 1.0 mph /  1.6 km/h 4.0 mph /  6.4 km/h 97 % 0.00 in /  0 mm 0 W/m2
07:00 39.8 °F /  4.3 °C 39.0 °F /  3.9 °C 29.84 in /  1010.4 hPa SE 1.0 mph /  1.6 km/h 20.0 mph /  32.2 km/h 97 % 0.00 in /  0 mm 0 W/m2
07:05 39.8 °F /  4.3 °C 39.0 °F /  3.9 °C 29.84 in /  1010.4 hPa SE 1.0 mph /  1.6 km/h 20.0 mph /  32.2 km/h 97 % 0.00 in /  0 mm 0 W/m2
07:10 39.9 °F /  4.4 °C 39.1 °F /  3.9 °C 29.84 in /  1010.4 hPa SE 1.0 mph /  1.6 km/h 20.0 mph /  32.2 km/h 97 % 0.00 in /  0 mm 0 W/m2
07:15 39.9 °F /  4.4 °C 39.1 °F /  3.9 °C 29.84 in /  1010.4 hPa SE 3.0 mph /  4.8 km/h 20.0 mph /  32.2 km/h 97 % 0.00 in /  0 mm 0 W/m2
07:20 39.9 °F /  4.4 °C 39.1 °F /  3.9 °C 29.84 in /  1010.4 hPa SE 3.0 mph /  4.8 km/h 3.0 mph /  4.8 km/h 97 % 0.00 in /  0 mm 0 W/m2
07:30 40.0 °F /  4.4 °C 39.2 °F /  4 °C 29.84 in /  1010.4 hPa SSE 2.0 mph /  3.2 km/h 20.0 mph /  32.2 km/h 97 % 0.00 in /  0 mm 0 W/m2
07:35 40.0 °F /  4.4 °C 39.2 °F /  4 °C 29.84 in /  1010.4 hPa ESE 1.0 mph /  1.6 km/h 20.0 mph /  32.2 km/h 97 % 0.00 in /  0 mm 0 W/m2
07:40 40.0 °F /  4.4 °C 39.2 °F /  4 °C 29.84 in /  1010.4 hPa ESE 1.0 mph /  1.6 km/h 1.0 mph /  1.6 km/h 97 % 0.00 in /  0 mm 0 W/m2
07:45 40.0 °F /  4.4 °C 39.2 °F /  4 °C 29.84 in /  1010.4 hPa Calm   2.0 mph /  3.2 km/h 97 % 0.00 in /  0 mm 0 W/m2
07:50 40.0 °F /  4.4 °C 39.2 °F /  4 °C 29.84 in /  1010.4 hPa ESE 1.0 mph /  1.6 km/h 20.0 mph /  32.2 km/h 97 % 0.00 in /  0 mm 0 W/m2
08:00 40.1 °F /  4.5 °C 39.3 °F /  4.1 °C 29.84 in /  1010.4 hPa SSE 2.0 mph /  3.2 km/h 2.0 mph /  3.2 km/h 97 % 0.00 in /  0 mm 11 W/m2
08:05 40.1 °F /  4.5 °C 39.3 °F /  4.1 °C 29.84 in /  1010.4 hPa SSE 2.0 mph /  3.2 km/h 20.0 mph /  32.2 km/h 97 % 0.00 in /  0 mm 12 W/m2
08:10 40.1 °F /  4.5 °C 39.3 °F /  4.1 °C 29.84 in /  1010.4 hPa SSE 1.0 mph /  1.6 km/h 1.0 mph /  1.6 km/h 97 % 0.00 in /  0 mm 18 W/m2
08:20 40.2 °F /  4.6 °C 39.4 °F /  4.1 °C 29.84 in /  1010.4 hPa Calm   20.0 mph /  32.2 km/h 97 % 0.00 in /  0 mm 19 W/m2
08:25 40.3 °F /  4.6 °C 39.5 °F /  4.2 °C 29.84 in /  1010.4 hPa ESE 1.0 mph /  1.6 km/h 20.0 mph /  32.2 km/h 97 % 0.00 in /  0 mm 23 W/m2
08:30 40.3 °F /  4.6 °C 39.5 °F /  4.2 °C 29.85 in /  1010.7 hPa ESE 1.0 mph /  1.6 km/h 20.0 mph /  32.2 km/h 97 % 0.00 in /  0 mm 28 W/m2
08:35 40.4 °F /  4.7 °C 39.6 °F /  4.2 °C 29.85 in /  1010.7 hPa ESE 1.0 mph /  1.6 km/h 20.0 mph /  32.2 km/h 97 % 0.00 in /  0 mm 37 W/m2
08:45 40.6 °F /  4.8 °C 40.1 °F /  4.5 °C 29.85 in /  1010.7 hPa Calm   20.0 mph /  32.2 km/h 98 % 0.00 in /  0 mm 32 W/m2
08:50 40.6 °F /  4.8 °C 40.1 °F /  4.5 °C 29.85 in /  1010.7 hPa Calm   20.0 mph /  32.2 km/h 98 % 0.00 in /  0 mm 33 W/m2
08:55 40.5 °F /  4.7 °C 39.7 °F /  4.3 °C 29.85 in /  1010.7 hPa Calm   20.0 mph /  32.2 km/h 97 % 0.00 in /  0 mm 37 W/m2
09:00 40.5 °F /  4.7 °C 39.7 °F /  4.3 °C 29.86 in /  1011.1 hPa South 1.0 mph /  1.6 km/h 1.0 mph /  1.6 km/h 97 % 0.00 in /  0 mm 165 W/m2
09:10 40.8 °F /  4.9 °C 40.3 °F /  4.6 °C 29.86 in /  1011.1 hPa Calm   20.0 mph /  32.2 km/h 98 % 0.00 in /  0 mm 186 W/m2
09:15 40.9 °F /  4.9 °C 40.4 °F /  4.7 °C 29.86 in /  1011.1 hPa Calm   20.0 mph /  32.2 km/h 98 % 0.00 in /  0 mm 185 W/m2
09:20 41.1 °F /  5.1 °C 40.6 °F /  4.8 °C 29.86 in /  1011.1 hPa Calm   20.0 mph /  32.2 km/h 98 % 0.00 in /  0 mm 183 W/m2
09:25 41.2 °F /  5.1 °C 40.7 °F /  4.8 °C 29.86 in /  1011.1 hPa Calm   20.0 mph /  32.2 km/h 98 % 0.00 in /  0 mm 60 W/m2
09:30 41.3 °F /  5.2 °C 40.8 °F /  4.9 °C 29.86 in /  1011.1 hPa SW 1.0 mph /  1.6 km/h 20.0 mph /  32.2 km/h 98 % 0.00 in /  0 mm 162 W/m2
09:40 41.9 °F /  5.5 °C 41.4 °F /  5.2 °C 29.87 in /  1011.4 hPa SSW 1.0 mph /  1.6 km/h 20.0 mph /  32.2 km/h 98 % 0.00 in /  0 mm 237 W/m2
09:45 42.4 °F /  5.8 °C 41.9 °F /  5.5 °C 29.87 in /  1011.4 hPa SSW 1.0 mph /  1.6 km/h 20.0 mph /  32.2 km/h 98 % 0.00 in /  0 mm 251 W/m2
09:50 42.8 °F /  6 °C 42.3 °F /  5.7 °C 29.87 in /  1011.4 hPa SSW 1.0 mph /  1.6 km/h 1.0 mph /  1.6 km/h 98 % 0.00 in /  0 mm 257 W/m2
09:55 43.3 °F /  6.3 °C 42.8 °F /  6 °C 29.87 in /  1011.4 hPa Calm   20.0 mph /  32.2 km/h 98 % 0.00 in /  0 mm 265 W/m2
10:00 43.8 °F /  6.6 °C 43.3 °F /  6.3 °C 29.88 in /  1011.7 hPa Calm   20.0 mph /  32.2 km/h 98 % 0.00 in /  0 mm 272 W/m2
10:05 44.2 °F /  6.8 °C 43.7 °F /  6.5 °C 29.88 in /  1011.7 hPa Calm   20.0 mph /  32.2 km/h 98 % 0.00 in /  0 mm 279 W/m2
10:15 44.9 °F /  7.2 °C 44.1 °F /  6.7 °C 29.88 in /  1011.7 hPa Calm   20.0 mph /  32.2 km/h 97 % 0.00 in /  0 mm 297 W/m2
10:20 45.2 °F /  7.3 °C 44.4 °F /  6.9 °C 29.88 in /  1011.7 hPa Calm   20.0 mph /  32.2 km/h 97 % 0.00 in /  0 mm 302 W/m2
10:25 45.6 °F /  7.6 °C 44.5 °F /  6.9 °C 29.88 in /  1011.7 hPa Calm   20.0 mph /  32.2 km/h 96 % 0.00 in /  0 mm 308 W/m2
10:30 45.8 °F /  7.7 °C 44.4 °F /  6.9 °C 29.88 in /  1011.7 hPa Calm   20.0 mph /  32.2 km/h 95 % 0.00 in /  0 mm 315 W/m2
10:35 46.1 °F /  7.8 °C 44.5 °F /  6.9 °C 29.88 in /  1011.7 hPa Calm   20.0 mph /  32.2 km/h 94 % 0.00 in /  0 mm 320 W/m2
10:45 46.4 °F /  8 °C 44.2 °F /  6.8 °C 29.89 in /  1012.1 hPa East 2.0 mph /  3.2 km/h 20.0 mph /  32.2 km/h 92 % 0.00 in /  0 mm 341 W/m2
10:50 46.6 °F /  8.1 °C 44.1 °F /  6.7 °C 29.89 in /  1012.1 hPa East 1.0 mph /  1.6 km/h 1.0 mph /  1.6 km/h 91 % 0.00 in /  0 mm 348 W/m2
10:55 47.0 °F /  8.3 °C 44.5 °F /  6.9 °C 29.89 in /  1012.1 hPa Calm   20.0 mph /  32.2 km/h 91 % 0.00 in /  0 mm 359 W/m2
11:00 47.4 °F /  8.6 °C 44.6 °F /  7 °C 29.90 in /  1012.4 hPa Calm   20.0 mph /  32.2 km/h 90 % 0.00 in /  0 mm 371 W/m2
11:05 47.8 °F /  8.8 °C 44.4 °F /  6.9 °C 29.90 in /  1012.4 hPa Calm   20.0 mph /  32.2 km/h 88 % 0.00 in /  0 mm 413 W/m2
11:10 48.3 °F /  9.1 °C 44.6 °F /  7 °C 29.90 in /  1012.4 hPa Calm   20.0 mph /  32.2 km/h 87 % 0.00 in /  0 mm 438 W/m2
11:20 48.2 °F /  9 °C 43.3 °F /  6.3 °C 29.90 in /  1012.4 hPa SW 4.0 mph /  6.4 km/h 4.0 mph /  6.4 km/h 83 % 0.00 in /  0 mm 251 W/m2
11:25 47.9 °F /  8.8 °C 43.3 °F /  6.3 °C 29.90 in /  1012.4 hPa SW 4.0 mph /  6.4 km/h 5.0 mph /  8 km/h 84 % 0.00 in /  0 mm 308 W/m2
11:30 47.7 °F /  8.7 °C 43.4 °F /  6.3 °C 29.90 in /  1012.4 hPa SW 4.0 mph /  6.4 km/h 4.0 mph /  6.4 km/h 85 % 0.00 in /  0 mm 392 W/m2
11:35 47.9 °F /  8.8 °C 43.6 °F /  6.4 °C 29.90 in /  1012.4 hPa SW 3.0 mph /  4.8 km/h 20.0 mph /  32.2 km/h 85 % 0.00 in /  0 mm 299 W/m2
11:40 48.2 °F /  9 °C 43.6 °F /  6.4 °C 29.90 in /  1012.4 hPa WSW 3.0 mph /  4.8 km/h 20.0 mph /  32.2 km/h 84 % 0.00 in /  0 mm 434 W/m2
11:50 48.9 °F /  9.4 °C 44.3 °F /  6.8 °C 29.90 in /  1012.4 hPa SSW 3.0 mph /  4.8 km/h 3.0 mph /  4.8 km/h 84 % 0.00 in /  0 mm 550 W/m2
11:55 49.2 °F /  9.6 °C 43.6 °F /  6.4 °C 29.90 in /  1012.4 hPa SSW 4.0 mph /  6.4 km/h 5.0 mph /  8 km/h 81 % 0.00 in /  0 mm 563 W/m2
12:00 49.5 °F /  9.7 °C 44.2 °F /  6.8 °C 29.90 in /  1012.4 hPa WSW 4.0 mph /  6.4 km/h 20.0 mph /  32.2 km/h 82 % 0.00 in /  0 mm 239 W/m2
12:05 49.5 °F /  9.7 °C 43.6 °F /  6.4 °C 29.90 in /  1012.4 hPa South 3.0 mph /  4.8 km/h 20.0 mph /  32.2 km/h 80 % 0.00 in /  0 mm 547 W/m2
12:10 49.7 °F /  9.8 °C 44.1 °F /  6.7 °C 29.90 in /  1012.4 hPa SSW 4.0 mph /  6.4 km/h 4.0 mph /  6.4 km/h 81 % 0.00 in /  0 mm 513 W/m2
12:15 49.9 °F /  9.9 °C 44.0 °F /  6.7 °C 29.90 in /  1012.4 hPa SSW 4.0 mph /  6.4 km/h 6.0 mph /  9.7 km/h 80 % 0.00 in /  0 mm 487 W/m2
12:25 49.9 °F /  9.9 °C 43.6 °F /  6.4 °C 29.91 in /  1012.8 hPa SSW 3.0 mph /  4.8 km/h 20.0 mph /  32.2 km/h 79 % 0.00 in /  0 mm 213 W/m2
12:30 49.5 °F /  9.7 °C 42.9 °F /  6.1 °C 29.91 in /  1012.8 hPa SSW 2.0 mph /  3.2 km/h 20.0 mph /  32.2 km/h 78 % 0.00 in /  0 mm 174 W/m2
12:35 49.2 °F /  9.6 °C 42.6 °F /  5.9 °C 29.91 in /  1012.8 hPa SSW 1.0 mph /  1.6 km/h 20.0 mph /  32.2 km/h 78 % 0.00 in /  0 mm 181 W/m2
12:40 49.0 °F /  9.4 °C 42.4 °F /  5.8 °C 29.91 in /  1012.8 hPa Calm   20.0 mph /  32.2 km/h 78 % 0.00 in /  0 mm 163 W/m2
12:45 49.0 °F /  9.4 °C 42.8 °F /  6 °C 29.91 in /  1012.8 hPa Calm   20.0 mph /  32.2 km/h 79 % 0.00 in /  0 mm 171 W/m2
12:55 49.3 °F /  9.6 °C 42.7 °F /  5.9 °C 29.91 in /  1012.8 hPa SSW 1.0 mph /  1.6 km/h 20.0 mph /  32.2 km/h 78 % 0.00 in /  0 mm 156 W/m2
13:00 49.5 °F /  9.7 °C 42.9 °F /  6.1 °C 29.91 in /  1012.8 hPa Calm   20.0 mph /  32.2 km/h 78 % 0.00 in /  0 mm 304 W/m2
13:05 49.4 °F /  9.7 °C 43.5 °F /  6.4 °C 29.92 in /  1013.1 hPa NNE 2.0 mph /  3.2 km/h 20.0 mph /  32.2 km/h 80 % 0.00 in /  0 mm 128 W/m2
13:10 48.9 °F /  9.4 °C 43.3 °F /  6.3 °C 29.92 in /  1013.1 hPa NE 4.0 mph /  6.4 km/h 20.0 mph /  32.2 km/h 81 % 0.00 in /  0 mm 232 W/m2
13:15 48.4 °F /  9.1 °C 43.2 °F /  6.2 °C 29.92 in /  1013.1 hPa NNE 4.0 mph /  6.4 km/h 20.0 mph /  32.2 km/h 82 % 0.00 in /  0 mm 120 W/m2
13:20 48.0 °F /  8.9 °C 43.1 °F /  6.2 °C 29.91 in /  1012.8 hPa NNE 4.0 mph /  6.4 km/h 4.0 mph /  6.4 km/h 83 % 0.00 in /  0 mm 90 W/m2
13:30 47.5 °F /  8.6 °C 43.5 °F /  6.4 °C 29.92 in /  1013.1 hPa NNE 3.0 mph /  4.8 km/h 20.0 mph /  32.2 km/h 86 % 0.00 in /  0 mm 86 W/m2
13:35 47.2 °F /  8.4 °C 43.2 °F /  6.2 °C 29.92 in /  1013.1 hPa ENE 4.0 mph /  6.4 km/h 20.0 mph /  32.2 km/h 86 % 0.00 in /  0 mm 98 W/m2
13:40 47.0 °F /  8.3 °C 43.3 °F /  6.3 °C 29.92 in /  1013.1 hPa ENE 4.0 mph /  6.4 km/h 4.0 mph /  6.4 km/h 87 % 0.00 in /  0 mm 114 W/m2
13:45 46.7 °F /  8.2 °C 43.3 °F /  6.3 °C 29.92 in /  1013.1 hPa NE 3.0 mph /  4.8 km/h 20.0 mph /  32.2 km/h 88 % 0.00 in /  0 mm 132 W/m2
13:50 46.6 °F /  8.1 °C 43.2 °F /  6.2 °C 29.92 in /  1013.1 hPa ENE 3.0 mph /  4.8 km/h 20.0 mph /  32.2 km/h 88 % 0.00 in /  0 mm 142 W/m2
14:00 46.6 °F /  8.1 °C 43.5 °F /  6.4 °C 29.93 in /  1013.4 hPa SE 1.0 mph /  1.6 km/h 1.0 mph /  1.6 km/h 89 % 0.00 in /  0 mm 125 W/m2
14:05 46.8 °F /  8.2 °C 43.7 °F /  6.5 °C 29.93 in /  1013.4 hPa ENE 1.0 mph /  1.6 km/h 5.0 mph /  8 km/h 89 % 0.00 in /  0 mm 330 W/m2
14:10 47.1 °F /  8.4 °C 44.0 °F /  6.7 °C 29.93 in /  1013.4 hPa NE 2.0 mph /  3.2 km/h 2.0 mph /  3.2 km/h 89 % 0.00 in /  0 mm 306 W/m2
14:15 47.5 °F /  8.6 °C 44.1 °F /  6.7 °C 29.93 in /  1013.4 hPa ENE 2.0 mph /  3.2 km/h 4.0 mph /  6.4 km/h 88 % 0.00 in /  0 mm 294 W/m2
14:20 47.7 °F /  8.7 °C 44.0 °F /  6.7 °C 29.93 in /  1013.4 hPa ENE 1.0 mph /  1.6 km/h 1.0 mph /  1.6 km/h 87 % 0.00 in /  0 mm 285 W/m2
14:25 47.9 °F /  8.8 °C 44.2 °F /  6.8 °C 29.93 in /  1013.4 hPa ENE 2.0 mph /  3.2 km/h 2.0 mph /  3.2 km/h 87 % 0.00 in /  0 mm 285 W/m2
14:35 48.2 °F /  9 °C 44.2 °F /  6.8 °C 29.94 in /  1013.8 hPa ENE 1.0 mph /  1.6 km/h 20.0 mph /  32.2 km/h 86 % 0.00 in /  0 mm 299 W/m2
14:40 48.3 °F /  9.1 °C 44.3 °F /  6.8 °C 29.94 in /  1013.8 hPa NE 2.0 mph /  3.2 km/h 20.0 mph /  32.2 km/h 86 % 0.00 in /  0 mm 269 W/m2
14:45 48.2 °F /  9 °C 43.9 °F /  6.6 °C 29.94 in /  1013.8 hPa ENE 3.0 mph /  4.8 km/h 20.0 mph /  32.2 km/h 85 % 0.00 in /  0 mm 248 W/m2
14:50 47.7 °F /  8.7 °C 43.4 °F /  6.3 °C 29.94 in /  1013.8 hPa ESE 3.0 mph /  4.8 km/h 20.0 mph /  32.2 km/h 85 % 0.00 in /  0 mm 54 W/m2
14:55 47.3 °F /  8.5 °C 43.3 °F /  6.3 °C 29.95 in /  1014.1 hPa East 2.0 mph /  3.2 km/h 20.0 mph /  32.2 km/h 86 % 0.00 in /  0 mm 49 W/m2
15:05 46.6 °F /  8.1 °C 42.9 °F /  6.1 °C 29.95 in /  1014.1 hPa ENE 1.0 mph /  1.6 km/h 20.0 mph /  32.2 km/h 87 % 0.00 in /  0 mm 62 W/m2
15:10 46.5 °F /  8.1 °C 42.8 °F /  6 °C 29.95 in /  1014.1 hPa East 1.0 mph /  1.6 km/h 20.0 mph /  32.2 km/h 87 % 0.00 in /  0 mm 62 W/m2
15:15 46.4 °F /  8 °C 43.0 °F /  6.1 °C 29.95 in /  1014.1 hPa ESE 1.0 mph /  1.6 km/h 20.0 mph /  32.2 km/h 88 % 0.00 in /  0 mm 63 W/m2
15:20 46.2 °F /  7.9 °C 42.8 °F /  6 °C 29.95 in /  1014.1 hPa East 2.0 mph /  3.2 km/h 2.0 mph /  3.2 km/h 88 % 0.00 in /  0 mm 69 W/m2
15:30 45.9 °F /  7.7 °C 42.8 °F /  6 °C 29.96 in /  1014.4 hPa East 1.0 mph /  1.6 km/h 20.0 mph /  32.2 km/h 89 % 0.00 in /  0 mm 111 W/m2
15:35 45.9 °F /  7.7 °C 42.8 °F /  6 °C 29.96 in /  1014.4 hPa ESE 1.0 mph /  1.6 km/h 20.0 mph /  32.2 km/h 89 % 0.00 in /  0 mm 120 W/m2
15:40 45.8 °F /  7.7 °C 42.7 °F /  5.9 °C 29.96 in /  1014.4 hPa ESE 2.0 mph /  3.2 km/h 2.0 mph /  3.2 km/h 89 % 0.00 in /  0 mm 70 W/m2
15:45 45.8 °F /  7.7 °C 42.7 °F /  5.9 °C 29.96 in /  1014.4 hPa ESE 1.0 mph /  1.6 km/h 20.0 mph /  32.2 km/h 89 % 0.00 in /  0 mm 33 W/m2
15:55 45.5 °F /  7.5 °C 42.4 °F /  5.8 °C 29.97 in /  1014.8 hPa Calm   20.0 mph /  32.2 km/h 89 % 0.00 in /  0 mm 23 W/m2
16:00 45.3 °F /  7.4 °C 42.2 °F /  5.7 °C 29.97 in /  1014.8 hPa Calm   20.0 mph /  32.2 km/h 89 % 0.00 in /  0 mm 21 W/m2
16:05 45.1 °F /  7.3 °C 42.1 °F /  5.6 °C 29.97 in /  1014.8 hPa Calm   20.0 mph /  32.2 km/h 89 % 0.00 in /  0 mm 19 W/m2
16:15 44.7 °F /  7.1 °C 41.7 °F /  5.4 °C 29.98 in /  1015.1 hPa Calm   20.0 mph /  32.2 km/h 89 % 0.00 in /  0 mm 23 W/m2
16:20 44.5 °F /  6.9 °C 41.5 °F /  5.3 °C 29.98 in /  1015.1 hPa Calm   20.0 mph /  32.2 km/h 89 % 0.00 in /  0 mm 32 W/m2
16:25 44.4 °F /  6.9 °C 41.7 °F /  5.4 °C 29.98 in /  1015.1 hPa Calm   20.0 mph /  32.2 km/h 90 % 0.00 in /  0 mm 32 W/m2
16:30 44.3 °F /  6.8 °C 41.6 °F /  5.3 °C 29.98 in /  1015.1 hPa Calm   20.0 mph /  32.2 km/h 90 % 0.00 in /  0 mm 28 W/m2
16:35 44.2 °F /  6.8 °C 41.5 °F /  5.3 °C 29.98 in /  1015.1 hPa Calm   20.0 mph /  32.2 km/h 90 % 0.00 in /  0 mm 19 W/m2
16:45 44.0 °F /  6.7 °C 41.5 °F /  5.3 °C 29.99 in /  1015.5 hPa Calm   20.0 mph /  32.2 km/h 91 % 0.00 in /  0 mm 7 W/m2
16:50 43.9 °F /  6.6 °C 41.4 °F /  5.2 °C 29.99 in /  1015.5 hPa Calm   20.0 mph /  32.2 km/h 91 % 0.00 in /  0 mm 7 W/m2
16:55 43.7 °F /  6.5 °C 41.2 °F /  5.1 °C 29.99 in /  1015.5 hPa Calm   20.0 mph /  32.2 km/h 91 % 0.00 in /  0 mm 5 W/m2
17:00 43.5 °F /  6.4 °C 41.0 °F /  5 °C 29.99 in /  1015.5 hPa Calm   20.0 mph /  32.2 km/h 91 % 0.00 in /  0 mm 0 W/m2
17:05 43.3 °F /  6.3 °C 40.8 °F /  4.9 °C 30.00 in /  1015.8 hPa Calm   20.0 mph /  32.2 km/h 91 % 0.00 in /  0 mm 0 W/m2
17:10 43.1 °F /  6.2 °C 40.7 °F /  4.8 °C 30.00 in /  1015.8 hPa Calm   20.0 mph /  32.2 km/h 91 % 0.00 in /  0 mm 0 W/m2
17:20 42.4 °F /  5.8 °C 40.0 °F /  4.4 °C 30.00 in /  1015.8 hPa Calm   20.0 mph /  32.2 km/h 91 % 0.00 in /  0 mm 0 W/m2
17:25 42.2 °F /  5.7 °C 40.0 °F /  4.4 °C 30.00 in /  1015.8 hPa Calm   20.0 mph /  32.2 km/h 92 % 0.00 in /  0 mm 0 W/m2
17:30 41.9 °F /  5.5 °C 39.7 °F /  4.3 °C 30.01 in /  1016.1 hPa Calm   20.0 mph /  32.2 km/h 92 % 0.00 in /  0 mm 0 W/m2
17:35 41.6 °F /  5.3 °C 39.4 °F /  4.1 °C 30.01 in /  1016.1 hPa Calm   20.0 mph /  32.2 km/h 92 % 0.00 in /  0 mm 0 W/m2
17:40 41.2 °F /  5.1 °C 39.1 °F /  3.9 °C 30.01 in /  1016.1 hPa Calm   20.0 mph /  32.2 km/h 92 % 0.00 in /  0 mm 0 W/m2
17:50 40.8 °F /  4.9 °C 38.7 °F /  3.7 °C 30.02 in /  1016.5 hPa Calm   20.0 mph /  32.2 km/h 92 % 0.00 in /  0 mm 0 W/m2
17:55 40.5 °F /  4.7 °C 38.4 °F /  3.6 °C 30.02 in /  1016.5 hPa Calm   20.0 mph /  32.2 km/h 92 % 0.00 in /  0 mm 0 W/m2
18:00 40.2 °F /  4.6 °C 38.1 °F /  3.4 °C 30.02 in /  1016.5 hPa Calm   20.0 mph /  32.2 km/h 92 % 0.00 in /  0 mm 0 W/m2
18:05 40.0 °F /  4.4 °C 38.1 °F /  3.4 °C 30.02 in /  1016.5 hPa Calm   20.0 mph /  32.2 km/h 93 % 0.00 in /  0 mm 0 W/m2
18:15 39.9 °F /  4.4 °C 38.3 °F /  3.5 °C 30.03 in /  1016.8 hPa Calm   20.0 mph /  32.2 km/h 94 % 0.00 in /  0 mm 0 W/m2
18:20 39.8 °F /  4.3 °C 38.2 °F /  3.4 °C 30.03 in /  1016.8 hPa Calm   20.0 mph /  32.2 km/h 94 % 0.00 in /  0 mm 0 W/m2
18:25 39.7 °F /  4.3 °C 38.1 °F /  3.4 °C 30.03 in /  1016.8 hPa Calm   20.0 mph /  32.2 km/h 94 % 0.00 in /  0 mm 0 W/m2
18:30 39.9 °F /  4.4 °C 38.3 °F /  3.5 °C 30.03 in /  1016.8 hPa Calm   20.0 mph /  32.2 km/h 94 % 0.00 in /  0 mm 0 W/m2
18:35 39.9 °F /  4.4 °C 38.3 °F /  3.5 °C 30.04 in /  1017.2 hPa Calm   20.0 mph /  32.2 km/h 94 % 0.00 in /  0 mm 0 W/m2
18:45 40.0 °F /  4.4 °C 38.7 °F /  3.7 °C 30.04 in /  1017.2 hPa Calm   20.0 mph /  32.2 km/h 95 % 0.00 in /  0 mm 0 W/m2
18:50 40.1 °F /  4.5 °C 38.8 °F /  3.8 °C 30.04 in /  1017.2 hPa Calm   20.0 mph /  32.2 km/h 95 % 0.00 in /  0 mm 0 W/m2
18:55 40.2 °F /  4.6 °C 38.9 °F /  3.8 °C 30.04 in /  1017.2 hPa Calm   20.0 mph /  32.2 km/h 95 % 0.00 in /  0 mm 0 W/m2
19:00 40.4 °F /  4.7 °C 39.1 °F /  3.9 °C 30.04 in /  1017.2 hPa Calm   20.0 mph /  32.2 km/h 95 % 0.00 in /  0 mm 0 W/m2
19:10 40.5 °F /  4.7 °C 39.2 °F /  4 °C 30.05 in /  1017.5 hPa Calm   20.0 mph /  32.2 km/h 95 % 0.00 in /  0 mm 0 W/m2
19:15 40.4 °F /  4.7 °C 39.1 °F /  3.9 °C 30.05 in /  1017.5 hPa Calm   20.0 mph /  32.2 km/h 95 % 0.00 in /  0 mm 0 W/m2
19:20 40.4 °F /  4.7 °C 39.1 °F /  3.9 °C 30.05 in /  1017.5 hPa Calm   20.0 mph /  32.2 km/h 95 % 0.00 in /  0 mm 0 W/m2
19:25 40.4 °F /  4.7 °C 39.1 °F /  3.9 °C 30.06 in /  1017.8 hPa Calm   20.0 mph /  32.2 km/h 95 % 0.00 in /  0 mm 0 W/m2
19:30 40.4 °F /  4.7 °C 39.1 °F /  3.9 °C 30.06 in /  1017.8 hPa Calm   20.0 mph /  32.2 km/h 95 % 0.00 in /  0 mm 0 W/m2
19:35 40.4 °F /  4.7 °C 39.1 °F /  3.9 °C 30.06 in /  1017.8 hPa Calm   20.0 mph /  32.2 km/h 95 % 0.00 in /  0 mm 0 W/m2
19:45 40.3 °F /  4.6 °C 39.0 °F /  3.9 °C 30.06 in /  1017.8 hPa Calm   20.0 mph /  32.2 km/h 95 % 0.00 in /  0 mm 0 W/m2
19:50 40.3 °F /  4.6 °C 39.0 °F /  3.9 °C 30.06 in /  1017.8 hPa Calm   20.0 mph /  32.2 km/h 95 % 0.00 in /  0 mm 0 W/m2
19:55 40.1 °F /  4.5 °C 38.8 °F /  3.8 °C 30.06 in /  1017.8 hPa Calm   20.0 mph /  32.2 km/h 95 % 0.00 in /  0 mm 0 W/m2
20:05 39.7 °F /  4.3 °C 38.4 °F /  3.6 °C 30.07 in /  1018.2 hPa Calm   20.0 mph /  32.2 km/h 95 % 0.00 in /  0 mm 0 W/m2
20:10 39.6 °F /  4.2 °C 38.3 °F /  3.5 °C 30.07 in /  1018.2 hPa Calm   20.0 mph /  32.2 km/h 95 % 0.00 in /  0 mm 0 W/m2
20:15 39.6 °F /  4.2 °C 38.6 °F /  3.7 °C 30.07 in /  1018.2 hPa Calm   20.0 mph /  32.2 km/h 96 % 0.00 in /  0 mm 0 W/m2
20:20 39.6 °F /  4.2 °C 38.6 °F /  3.7 °C 30.07 in /  1018.2 hPa Calm   20.0 mph /  32.2 km/h 96 % 0.00 in /  0 mm 0 W/m2
20:25 39.7 °F /  4.3 °C 38.7 °F /  3.7 °C 30.07 in /  1018.2 hPa NW 1.0 mph /  1.6 km/h 20.0 mph /  32.2 km/h 96 % 0.00 in /  0 mm 0 W/m2
20:35 40.0 °F /  4.4 °C 39.0 °F /  3.9 °C 30.08 in /  1018.5 hPa NW 2.0 mph /  3.2 km/h 20.0 mph /  32.2 km/h 96 % 0.00 in /  0 mm 0 W/m2
20:40 40.1 °F /  4.5 °C 39.1 °F /  3.9 °C 30.08 in /  1018.5 hPa WNW 2.0 mph /  3.2 km/h 20.0 mph /  32.2 km/h 96 % 0.00 in /  0 mm 0 W/m2
20:45 40.1 °F /  4.5 °C 39.1 °F /  3.9 °C 30.08 in /  1018.5 hPa NW 3.0 mph /  4.8 km/h 20.0 mph /  32.2 km/h 96 % 0.00 in /  0 mm 0 W/m2
20:50 40.2 °F /  4.6 °C 39.2 °F /  4 °C 30.08 in /  1018.5 hPa NW 3.0 mph /  4.8 km/h 3.0 mph /  4.8 km/h 96 % 0.00 in /  0 mm 0 W/m2
20:55 40.2 °F /  4.6 °C 38.9 °F /  3.8 °C 30.08 in /  1018.5 hPa NW 2.0 mph /  3.2 km/h 20.0 mph /  32.2 km/h 95 % 0.00 in /  0 mm 0 W/m2
21:00 40.2 °F /  4.6 °C 38.9 °F /  3.8 °C 30.08 in /  1018.5 hPa NW 1.0 mph /  1.6 km/h 1.0 mph /  1.6 km/h 95 % 0.00 in /  0 mm 0 W/m2
21:10 40.0 °F /  4.4 °C 38.7 °F /  3.7 °C 30.09 in /  1018.8 hPa Calm   20.0 mph /  32.2 km/h 95 % 0.00 in /  0 mm 0 W/m2
21:15 39.9 °F /  4.4 °C 38.3 °F /  3.5 °C 30.09 in /  1018.8 hPa Calm   20.0 mph /  32.2 km/h 94 % 0.00 in /  0 mm 0 W/m2
21:20 39.8 °F /  4.3 °C 38.2 °F /  3.4 °C 30.09 in /  1018.8 hPa Calm   20.0 mph /  32.2 km/h 94 % 0.00 in /  0 mm 0 W/m2
21:25 39.5 °F /  4.2 °C 37.9 °F /  3.3 °C 30.09 in /  1018.8 hPa Calm   20.0 mph /  32.2 km/h 94 % 0.00 in /  0 mm 0 W/m2
21:30 39.3 °F /  4.1 °C 37.7 °F /  3.2 °C 30.09 in /  1018.8 hPa Calm   20.0 mph /  32.2 km/h 94 % 0.00 in /  0 mm 0 W/m2
21:40 38.8 °F /  3.8 °C 37.2 °F /  2.9 °C 30.10 in /  1019.2 hPa Calm   20.0 mph /  32.2 km/h 94 % 0.00 in /  0 mm 0 W/m2
21:45 38.5 °F /  3.6 °C 36.9 °F /  2.7 °C 30.10 in /  1019.2 hPa Calm   20.0 mph /  32.2 km/h 94 % 0.00 in /  0 mm 0 W/m2
21:50 38.5 °F /  3.6 °C 37.2 °F /  2.9 °C 30.10 in /  1019.2 hPa ENE 1.0 mph /  1.6 km/h 20.0 mph /  32.2 km/h 95 % 0.00 in /  0 mm 0 W/m2
21:55 38.6 °F /  3.7 °C 37.3 °F /  2.9 °C 30.11 in /  1019.5 hPa ENE 1.0 mph /  1.6 km/h 20.0 mph /  32.2 km/h 95 % 0.00 in /  0 mm 0 W/m2
22:00 38.6 °F /  3.7 °C 37.3 °F /  2.9 °C 30.11 in /  1019.5 hPa Calm   20.0 mph /  32.2 km/h 95 % 0.00 in /  0 mm 0 W/m2
22:05 38.5 °F /  3.6 °C 37.2 °F /  2.9 °C 30.11 in /  1019.5 hPa Calm   20.0 mph /  32.2 km/h 95 % 0.00 in /  0 mm 0 W/m2
22:15 38.5 °F /  3.6 °C 37.2 °F /  2.9 °C 30.11 in /  1019.5 hPa North 1.0 mph /  1.6 km/h 20.0 mph /  32.2 km/h 95 % 0.00 in /  0 mm 0 W/m2
22:25 38.9 °F /  3.8 °C 37.6 °F /  3.1 °C 30.12 in /  1019.9 hPa NNW 1.0 mph /  1.6 km/h 20.0 mph /  32.2 km/h 95 % 0.00 in /  0 mm 0 W/m2
22:30 39.0 °F /  3.9 °C 37.7 °F /  3.2 °C 30.12 in /  1019.9 hPa NE 2.0 mph /  3.2 km/h 2.0 mph /  3.2 km/h 95 % 0.00 in /  0 mm 0 W/m2
22:35 39.1 °F /  3.9 °C 37.8 °F /  3.2 °C 30.12 in /  1019.9 hPa NNE 1.0 mph /  1.6 km/h 20.0 mph /  32.2 km/h 95 % 0.00 in /  0 mm 0 W/m2
22:45 39.2 °F /  4 °C 37.6 °F /  3.1 °C 30.13 in /  1020.2 hPa North 1.0 mph /  1.6 km/h 20.0 mph /  32.2 km/h 94 % 0.00 in /  0 mm 0 W/m2
22:50 39.2 °F /  4 °C 37.6 °F /  3.1 °C 30.13 in /  1020.2 hPa Calm   20.0 mph /  32.2 km/h 94 % 0.00 in /  0 mm 0 W/m2
22:55 39.0 °F /  3.9 °C 37.4 °F /  3 °C 30.14 in /  1020.5 hPa Calm   20.0 mph /  32.2 km/h 94 % 0.00 in /  0 mm 0 W/m2
23:00 38.9 °F /  3.8 °C 37.3 °F /  2.9 °C 30.14 in /  1020.5 hPa Calm   20.0 mph /  32.2 km/h 94 % 0.00 in /  0 mm 0 W/m2
23:15 38.7 °F /  3.7 °C 37.1 °F /  2.8 °C 30.14 in /  1020.5 hPa Calm   20.0 mph /  32.2 km/h 94 % 0.00 in /  0 mm 0 W/m2
23:20 38.6 °F /  3.7 °C 37.0 °F /  2.8 °C 30.14 in /  1020.5 hPa Calm   20.0 mph /  32.2 km/h 94 % 0.00 in /  0 mm 0 W/m2
23:30 38.6 °F /  3.7 °C 37.0 °F /  2.8 °C 30.15 in /  1020.9 hPa Calm   20.0 mph /  32.2 km/h 94 % 0.00 in /  0 mm 0 W/m2
23:35 38.6 °F /  3.7 °C 37.0 °F /  2.8 °C 30.15 in /  1020.9 hPa Calm   20.0 mph /  32.2 km/h 94 % 0.00 in /  0 mm 0 W/m2
23:40 38.5 °F /  3.6 °C 36.9 °F /  2.7 °C 30.15 in /  1020.9 hPa Calm   20.0 mph /  32.2 km/h 94 % 0.00 in /  0 mm 0 W/m2
23:45 38.4 °F /  3.6 °C 36.8 °F /  2.7 °C 30.15 in /  1020.9 hPa Calm   20.0 mph /  32.2 km/h 94 % 0.00 in /  0 mm 0 W/m2
23:55 38.4 °F /  3.6 °C 36.8 °F /  2.7 °C 30.15 in /  1020.9 hPa Calm   20.0 mph /  32.2 km/h 94 % 0.00 in /  0 mm 0 W/m2
Delerius-Weather
Compliments of Weather Underground - 2 mb

Data updates at regular intervals.